createdAt,value
2019-04-22T00:00:54.260Z,41.55
2019-04-22T00:01:56.976Z,40.43
2019-04-22T00:02:59.233Z,40.52
2019-04-22T00:04:01.376Z,40.72
2019-04-22T00:05:05.770Z,40.43
2019-04-22T00:06:14.817Z,41.35
2019-04-22T00:07:18.821Z,41.14
2019-04-22T00:08:17.130Z,40.74
2019-04-22T00:09:20.927Z,40.84
2019-04-22T00:10:19.343Z,41.86
2019-04-22T00:11:25.582Z,41.25
2019-04-22T00:12:19.651Z,41.45
2019-04-22T00:13:26.002Z,41.55
2019-04-22T00:14:13.117Z,41.45
2019-04-22T00:15:15.514Z,41.35
2019-04-22T00:16:19.490Z,41.45
2019-04-22T00:17:25.064Z,41.45
2019-04-22T00:18:19.927Z,41.55
2019-04-22T00:19:24.337Z,41.66
2019-04-22T00:20:30.186Z,41.66
2019-04-22T00:21:20.083Z,41.27
2019-04-22T00:22:26.077Z,41.47
2019-04-22T00:23:20.098Z,41.57
2019-04-22T00:24:18.692Z,41.47
2019-04-22T00:25:19.967Z,41.05
2019-04-22T00:26:27.589Z,41.16
2019-04-22T00:28:25.360Z,41.06
2019-04-22T00:31:25.428Z,40.98
2019-04-22T00:32:18.217Z,42.51
2019-04-22T00:33:16.216Z,42.33
2019-04-22T00:34:21.297Z,43.02
2019-04-22T00:35:18.084Z,42.73
2019-04-22T00:36:16.578Z,42.43
2019-04-22T00:37:19.204Z,42.43
2019-04-22T00:38:23.598Z,42.63
2019-04-22T00:39:22.144Z,42.43
2019-04-22T00:40:19.681Z,42.73
2019-04-22T00:41:23.341Z,42.30
2019-04-22T00:42:21.177Z,42.71
2019-04-22T00:43:19.931Z,42.73
2019-04-22T00:45:19.374Z,42.83
2019-04-22T00:46:17.946Z,42.33
2019-04-22T00:47:26.690Z,42.63
2019-04-22T00:48:20.664Z,42.63
2019-04-22T00:50:01.981Z,42.83
2019-04-22T00:50:18.939Z,42.73
2019-04-22T00:51:22.605Z,42.43
2019-04-22T00:52:16.658Z,43.14
2019-04-22T00:53:22.602Z,42.53
2019-04-22T00:54:17.742Z,43.04
2019-04-22T00:55:20.430Z,43.14
2019-04-22T00:56:20.192Z,43.14
2019-04-22T00:57:16.870Z,42.53
2019-04-22T00:58:16.256Z,42.63
2019-04-22T00:59:22.310Z,42.85
2019-04-22T01:00:22.400Z,42.63
2019-04-22T01:01:20.398Z,42.53
2019-04-22T01:02:20.280Z,42.55
2019-04-22T01:03:27.487Z,43.06
2019-04-22T01:04:27.560Z,43.06
2019-04-22T01:05:21.450Z,43.16
2019-04-22T01:06:23.093Z,43.37
2019-04-22T01:07:17.715Z,43.47
2019-04-22T01:08:23.508Z,43.06
2019-04-22T01:09:21.563Z,43.06
2019-04-22T01:10:20.283Z,43.47
2019-04-22T01:11:24.762Z,43.67
2019-04-22T01:12:20.713Z,43.49
2019-04-22T01:13:23.130Z,44.20
2019-04-22T01:14:13.074Z,44.10
2019-04-22T01:15:27.602Z,44.61
2019-04-22T01:16:17.034Z,44.41
2019-04-22T01:17:21.203Z,45.04
2019-04-22T01:18:15.753Z,43.91
2019-04-22T01:19:26.027Z,44.53
2019-04-22T01:20:38.556Z,44.43
2019-04-22T01:21:36.362Z,44.22
2019-04-22T01:22:17.566Z,44.73
2019-04-22T01:23:19.549Z,45.14
2019-04-22T01:24:17.094Z,44.73
2019-04-22T01:25:15.943Z,45.37
2019-04-22T01:26:08.058Z,45.26
2019-04-22T01:27:08.023Z,45.26
2019-04-22T01:28:12.605Z,45.88
2019-04-22T01:29:05.000Z,45.67
2019-04-22T01:30:08.458Z,45.78
2019-04-22T01:31:01.948Z,45.67
2019-04-22T01:31:54.602Z,45.67
2019-04-22T01:33:02.753Z,45.47
2019-04-22T01:34:08.378Z,45.98
2019-04-22T01:35:09.165Z,46.29
2019-04-22T01:36:15.288Z,45.59
2019-04-22T01:37:09.054Z,45.98
2019-04-22T01:38:11.771Z,45.88
2019-04-22T01:39:18.266Z,45.78
2019-04-22T01:40:17.738Z,45.59
2019-04-22T01:41:23.050Z,45.70
2019-04-22T01:42:18.701Z,45.70
2019-04-22T01:43:25.105Z,45.90
2019-04-22T01:44:25.730Z,45.90
2019-04-22T01:45:19.372Z,45.70
2019-04-22T01:46:27.284Z,45.90
2019-04-22T01:47:18.642Z,45.80
2019-04-22T01:48:19.612Z,46.11
2019-04-22T01:49:21.484Z,45.90
2019-04-22T01:50:19.958Z,46.11
2019-04-22T01:51:22.348Z,45.80
2019-04-22T01:52:16.559Z,45.70
2019-04-22T01:53:19.376Z,45.29
2019-04-22T01:54:23.407Z,45.59
2019-04-22T01:55:25.137Z,45.90
2019-04-22T01:56:24.268Z,46.00
2019-04-22T01:57:20.806Z,45.80
2019-04-22T01:58:10.992Z,45.59
2019-04-22T01:59:11.010Z,45.59
2019-04-22T02:00:13.882Z,45.78
2019-04-22T02:01:22.147Z,45.78
2019-04-22T02:02:18.987Z,45.49
2019-04-22T02:03:17.210Z,45.49
2019-04-22T02:04:26.886Z,45.49
2019-04-22T02:05:21.659Z,46.00
2019-04-22T02:06:28.809Z,46.00
2019-04-22T02:07:19.375Z,45.80
2019-04-22T02:08:25.285Z,45.90
2019-04-22T02:09:24.037Z,45.49
2019-04-22T02:10:26.887Z,46.11
2019-04-22T02:11:29.287Z,45.90
2019-04-22T02:12:22.646Z,46.11
2019-04-22T02:13:23.461Z,45.70
2019-04-22T02:14:19.836Z,46.03
2019-04-22T02:15:16.965Z,45.82
2019-04-22T02:16:23.152Z,46.23
2019-04-22T02:18:23.405Z,45.82
2019-04-22T02:19:22.735Z,45.59
2019-04-22T02:20:23.192Z,46.44
2019-04-22T02:21:13.811Z,46.44
2019-04-22T02:22:38.075Z,46.44
2019-04-22T02:24:18.068Z,46.12
2019-04-22T02:25:25.756Z,45.41
2019-04-22T02:26:38.585Z,45.39
2019-04-22T02:27:29.333Z,45.72
2019-04-22T02:28:25.633Z,45.29
2019-04-22T02:29:23.251Z,45.49
2019-04-22T02:30:30.463Z,45.51
2019-04-22T02:32:39.269Z,46.31
2019-04-22T02:33:52.628Z,45.80
2019-04-22T02:34:21.565Z,45.49
2019-04-22T02:38:34.846Z,46.23
2019-04-22T02:39:20.237Z,46.33
2019-04-22T02:40:35.401Z,46.12
2019-04-22T02:41:31.116Z,45.41
2019-04-22T02:42:19.449Z,45.51
2019-04-22T02:43:34.198Z,45.82
2019-04-22T02:44:25.319Z,46.44
2019-04-22T02:45:26.392Z,46.33
2019-04-22T02:47:20.582Z,45.82
2019-04-22T02:48:34.103Z,46.86
2019-04-22T02:49:26.788Z,46.03
2019-04-22T02:50:19.724Z,45.61
2019-04-22T02:52:26.054Z,45.41
2019-04-22T02:53:44.498Z,45.72
2019-04-22T02:55:24.641Z,45.72
2019-04-22T02:57:32.035Z,45.92
2019-04-22T02:58:16.871Z,45.82
2019-04-22T02:59:26.184Z,45.61
2019-04-22T03:02:28.728Z,46.12
2019-04-22T03:03:45.858Z,45.61
2019-04-22T03:05:27.949Z,45.20
2019-04-22T03:07:25.496Z,46.03
2019-04-22T03:08:30.361Z,46.03
2019-04-22T03:09:25.496Z,45.61
2019-04-22T03:10:29.439Z,45.82
2019-04-22T03:11:24.758Z,45.82
2019-04-22T03:13:34.177Z,45.82
2019-04-22T03:15:20.099Z,45.31
2019-04-22T03:17:20.652Z,45.92
2019-04-22T03:18:29.155Z,45.00
2019-04-22T03:19:42.775Z,45.92
2019-04-22T03:20:17.816Z,45.72
2019-04-22T03:21:24.059Z,45.51
2019-04-22T03:22:26.482Z,45.92
2019-04-22T03:26:27.270Z,45.61
2019-04-22T03:27:25.489Z,45.31
2019-04-22T03:28:33.059Z,45.31
2019-04-22T03:29:21.374Z,45.20
2019-04-22T03:31:44.838Z,45.41
2019-04-22T03:32:52.455Z,45.20
2019-04-22T03:33:33.994Z,45.10
2019-04-22T03:35:15.828Z,45.20
2019-04-22T03:35:36.822Z,46.03
2019-04-22T03:37:00.414Z,44.90
2019-04-22T03:37:32.253Z,45.74
2019-04-22T03:38:28.567Z,45.64
2019-04-22T03:39:38.103Z,45.72
2019-04-22T03:40:37.318Z,45.51
2019-04-22T03:41:45.060Z,45.74
2019-04-22T03:42:45.671Z,46.03
2019-04-22T03:43:23.890Z,46.04
2019-04-22T03:44:32.040Z,45.84
2019-04-22T03:46:30.341Z,45.61
2019-04-22T03:47:31.917Z,45.94
2019-04-22T03:48:15.900Z,45.82
2019-04-22T03:49:37.166Z,45.84
2019-04-22T03:53:24.795Z,45.10
2019-04-22T03:55:26.091Z,45.41
2019-04-22T03:56:56.866Z,45.41
2019-04-22T03:58:21.453Z,45.72
2019-04-22T04:01:36.928Z,46.04
2019-04-22T04:02:39.426Z,46.04
2019-04-22T04:03:22.773Z,45.84
2019-04-22T04:04:28.150Z,45.33
2019-04-22T04:05:34.003Z,45.94
2019-04-22T04:06:32.376Z,46.35
2019-04-22T04:08:30.070Z,46.35
2019-04-22T04:09:24.166Z,46.45
2019-04-22T04:10:37.599Z,46.78
2019-04-22T04:11:39.011Z,46.45
2019-04-22T04:12:23.707Z,46.45
2019-04-22T04:14:26.939Z,46.66
2019-04-22T04:15:28.550Z,46.27
2019-04-22T04:16:35.250Z,46.37
2019-04-22T04:18:19.214Z,47.60
2019-04-22T04:22:43.043Z,47.30
2019-04-22T04:23:30.949Z,46.78
2019-04-22T04:25:38.118Z,47.60
2019-04-22T04:26:42.425Z,47.19
2019-04-22T04:28:47.727Z,47.60
2019-04-22T04:29:41.767Z,47.40
2019-04-22T04:32:36.445Z,47.50
2019-04-22T04:33:33.064Z,47.71
2019-04-22T04:34:47.843Z,47.38
2019-04-22T04:35:32.392Z,47.58
2019-04-22T04:36:28.326Z,47.58
2019-04-22T04:38:21.175Z,46.15
2019-04-22T04:39:26.782Z,46.97
2019-04-22T04:40:50.889Z,46.76
2019-04-22T04:41:33.890Z,47.07
2019-04-22T04:42:32.525Z,47.68
2019-04-22T04:43:26.110Z,47.07
2019-04-22T04:46:45.306Z,47.07
2019-04-22T04:47:37.211Z,47.38
2019-04-22T04:49:24.283Z,46.97
2019-04-22T04:50:22.695Z,47.38
2019-04-22T04:51:32.971Z,48.01
2019-04-22T04:53:20.541Z,47.68
2019-04-22T04:56:33.931Z,47.78
2019-04-22T05:00:40.246Z,47.76
2019-04-22T05:01:31.264Z,47.15
2019-04-22T05:02:35.585Z,47.56
2019-04-22T05:03:32.831Z,47.27
2019-04-22T05:04:37.271Z,47.78
2019-04-22T05:06:39.282Z,47.66
2019-04-22T05:07:34.285Z,47.35
2019-04-22T05:08:39.047Z,47.66
2019-04-22T05:09:21.470Z,47.56
2019-04-22T05:10:35.081Z,47.35
2019-04-22T05:11:32.241Z,47.45
2019-04-22T05:13:33.559Z,47.33
2019-04-22T05:14:24.867Z,47.33
2019-04-22T05:18:20.814Z,46.21
2019-04-22T05:19:20.729Z,46.31
2019-04-22T05:20:42.642Z,46.31
2019-04-22T05:21:17.814Z,46.31
2019-04-22T05:22:21.069Z,46.29
2019-04-22T05:23:24.954Z,45.57
2019-04-22T05:24:25.992Z,45.78
2019-04-22T05:25:19.579Z,45.57
2019-04-22T05:26:20.508Z,45.57
2019-04-22T05:27:32.656Z,45.57
2019-04-22T05:28:16.498Z,45.98
2019-04-22T05:29:23.483Z,45.78
2019-04-22T05:31:28.709Z,45.78
2019-04-22T05:32:17.465Z,45.65
2019-04-22T05:33:15.360Z,45.55
2019-04-22T05:34:14.422Z,45.73
2019-04-22T05:35:20.612Z,45.00
2019-04-22T05:36:20.731Z,43.73
2019-04-22T05:37:22.841Z,41.63
2019-04-22T05:38:17.180Z,39.95
2019-04-22T05:39:15.731Z,39.49
2019-04-22T05:40:22.082Z,37.93
2019-04-22T05:41:16.291Z,37.29
2019-04-22T05:42:16.497Z,36.43
2019-04-22T05:43:16.205Z,35.94
2019-04-22T05:44:14.681Z,36.37
2019-04-22T05:45:14.835Z,35.65
2019-04-22T05:46:15.342Z,36.78
2019-04-22T05:47:15.197Z,37.20
2019-04-22T05:48:18.756Z,36.80
2019-04-22T05:50:13.027Z,35.83
2019-04-22T05:51:23.920Z,35.82
2019-04-22T05:52:17.284Z,36.04
2019-04-22T05:53:14.990Z,36.56
2019-04-22T05:54:27.330Z,36.44
2019-04-22T05:55:16.428Z,36.10
2019-04-22T05:57:18.064Z,37.81
2019-04-22T05:58:15.216Z,37.47
2019-04-22T05:59:22.822Z,35.51
2019-04-22T06:00:23.090Z,36.43
2019-04-22T06:02:31.004Z,34.67
2019-04-22T06:03:16.519Z,35.16
2019-04-22T06:04:17.065Z,35.06
2019-04-22T06:05:17.337Z,34.54
2019-04-22T06:07:13.612Z,33.18
2019-04-22T06:08:16.937Z,33.53
2019-04-22T06:09:14.748Z,34.23
2019-04-22T06:10:21.098Z,34.22
2019-04-22T06:11:24.107Z,33.51
2019-04-22T06:12:12.196Z,34.32
2019-04-22T06:13:09.968Z,34.64
2019-04-22T06:14:15.271Z,34.86
2019-04-22T06:15:16.648Z,34.82
2019-04-22T06:16:20.589Z,33.06
2019-04-22T06:17:20.489Z,33.15
2019-04-22T06:19:23.163Z,32.84
2019-04-22T06:20:15.302Z,33.09
2019-04-22T06:21:32.663Z,35.38
2019-04-22T06:22:22.607Z,34.52
2019-04-22T06:23:19.056Z,35.35
2019-04-22T06:24:27.448Z,34.99
2019-04-22T06:25:20.101Z,35.01
2019-04-22T06:26:24.001Z,34.91
2019-04-22T06:27:21.190Z,33.47
2019-04-22T06:28:26.605Z,32.61
2019-04-22T06:29:14.986Z,32.21
2019-04-22T06:30:17.235Z,32.50
2019-04-22T06:31:16.122Z,32.38
2019-04-22T06:32:26.364Z,32.38
2019-04-22T06:34:18.670Z,33.13
2019-04-22T06:35:23.395Z,33.03
2019-04-22T06:36:21.004Z,33.44
2019-04-22T06:37:17.464Z,33.65
2019-04-22T06:39:24.218Z,35.82
2019-04-22T06:40:20.440Z,36.10
2019-04-22T06:41:28.637Z,34.56
2019-04-22T06:42:19.253Z,34.04
2019-04-22T06:43:15.854Z,34.05
2019-04-22T06:44:29.866Z,33.84
2019-04-22T06:45:18.999Z,34.77
2019-04-22T06:46:14.410Z,33.82
2019-04-22T06:47:38.304Z,33.50
2019-04-22T06:48:19.567Z,33.00
2019-04-22T06:49:18.820Z,33.42
2019-04-22T06:50:19.968Z,33.40
2019-04-22T06:51:18.038Z,33.44
2019-04-22T06:53:22.223Z,35.63
2019-04-22T06:54:14.757Z,36.13
2019-04-22T06:55:16.657Z,37.06
2019-04-22T06:56:17.287Z,36.62
2019-04-22T06:57:11.541Z,35.93
2019-04-22T06:58:15.236Z,35.70
2019-04-22T06:59:11.884Z,35.19
2019-04-22T07:00:22.865Z,34.45
2019-04-22T07:01:21.076Z,35.38
2019-04-22T07:02:16.633Z,35.58
2019-04-22T07:03:37.462Z,35.46
2019-04-22T07:04:14.475Z,34.02
2019-04-22T07:05:17.999Z,34.66
2019-04-22T07:06:19.653Z,34.96
2019-04-22T07:07:12.254Z,35.38
2019-04-22T07:09:01.301Z,34.96
2019-04-22T07:11:06.234Z,35.92
2019-04-22T07:12:18.652Z,36.62
2019-04-22T07:13:21.105Z,36.15
2019-04-22T07:14:09.370Z,37.59
2019-04-22T07:15:31.705Z,37.68
2019-04-22T07:16:18.762Z,37.18
2019-04-22T07:17:14.944Z,37.70
2019-04-22T07:18:19.843Z,39.68
2019-04-22T07:19:13.549Z,40.73
2019-04-22T07:20:22.136Z,40.73
2019-04-22T07:21:18.119Z,41.24
2019-04-22T07:22:16.264Z,40.83
2019-04-22T07:23:24.827Z,39.92
2019-04-22T07:25:29.153Z,39.94
2019-04-22T07:26:16.228Z,40.85
2019-04-22T07:27:18.883Z,41.07
2019-04-22T07:28:15.616Z,41.36
2019-04-22T07:29:16.447Z,40.73
2019-04-22T07:30:25.334Z,40.19
2019-04-22T07:31:32.510Z,39.88
2019-04-22T07:32:17.212Z,39.58
2019-04-22T07:33:32.393Z,40.02
2019-04-22T07:34:22.301Z,40.43
2019-04-22T07:35:19.407Z,40.73
2019-04-22T07:38:17.516Z,40.12
2019-04-22T07:39:15.601Z,40.00
2019-04-22T07:40:17.265Z,40.00
2019-04-22T07:41:16.964Z,40.02
2019-04-22T07:42:20.357Z,39.92
2019-04-22T07:43:20.016Z,40.12
2019-04-22T07:44:21.890Z,39.82
2019-04-22T07:45:22.558Z,39.80
2019-04-22T07:46:13.427Z,40.20
2019-04-22T07:47:18.592Z,39.88
2019-04-22T07:48:26.182Z,38.57
2019-04-22T07:49:18.341Z,38.99
2019-04-22T07:50:25.342Z,39.78
2019-04-22T07:51:13.460Z,39.90
2019-04-22T07:52:15.890Z,40.20
2019-04-22T07:53:10.492Z,40.29
2019-04-22T07:54:13.348Z,39.66
2019-04-22T07:55:10.352Z,39.95
2019-04-22T07:56:12.391Z,38.71
2019-04-22T07:57:21.295Z,38.51
2019-04-22T07:58:21.132Z,37.48
2019-04-22T07:59:15.617Z,37.48
2019-04-22T08:00:16.204Z,38.41
2019-04-22T08:01:18.965Z,37.68
2019-04-22T08:02:14.583Z,37.52
2019-04-22T08:03:18.441Z,38.85
2019-04-22T08:04:22.980Z,38.85
2019-04-22T08:05:16.886Z,38.84
2019-04-22T08:06:20.302Z,38.71
2019-04-22T08:07:18.146Z,38.51
2019-04-22T08:08:24.969Z,37.57
2019-04-22T08:09:20.283Z,37.53
2019-04-22T08:10:23.600Z,36.91
2019-04-22T08:11:33.342Z,35.88
2019-04-22T08:12:16.682Z,34.97
2019-04-22T08:13:19.750Z,35.28
2019-04-22T08:14:17.194Z,34.49
2019-04-22T08:15:14.406Z,34.89
2019-04-22T08:16:17.013Z,34.89
2019-04-22T08:17:43.090Z,35.19
2019-04-22T08:18:24.881Z,34.61
2019-04-22T08:19:21.165Z,34.79
2019-04-22T08:20:18.920Z,34.30
2019-04-22T08:21:12.366Z,34.72
2019-04-22T08:22:14.243Z,35.04
2019-04-22T08:23:16.641Z,35.04
2019-04-22T08:24:18.083Z,34.64
2019-04-22T08:25:11.733Z,35.04
2019-04-22T08:26:15.813Z,34.84
2019-04-22T08:27:15.260Z,36.29
2019-04-22T08:28:17.386Z,36.59
2019-04-22T08:29:35.043Z,36.30
2019-04-22T08:31:17.301Z,36.30
2019-04-22T08:32:13.949Z,36.51
2019-04-22T08:33:16.061Z,36.21
2019-04-22T08:34:14.295Z,36.08
2019-04-22T08:35:20.205Z,35.58
2019-04-22T08:38:11.435Z,37.64
2019-04-22T08:39:14.089Z,37.21
2019-04-22T08:40:17.010Z,36.51
2019-04-22T08:41:23.058Z,36.51
2019-04-22T08:42:23.430Z,36.19
2019-04-22T08:43:20.212Z,37.32
2019-04-22T08:46:17.039Z,35.88
2019-04-22T08:47:19.095Z,35.99
2019-04-22T08:48:15.068Z,35.78
2019-04-22T08:49:10.506Z,35.44
2019-04-22T08:50:16.484Z,34.82
2019-04-22T08:51:19.237Z,34.91
2019-04-22T08:52:16.548Z,34.30
2019-04-22T08:53:16.121Z,34.91
2019-04-22T08:54:11.700Z,34.30
2019-04-22T08:55:22.599Z,35.43
2019-04-22T08:56:27.506Z,34.50
2019-04-22T08:57:18.346Z,33.18
2019-04-22T08:58:21.411Z,32.49
2019-04-22T09:00:15.490Z,32.87
2019-04-22T09:01:21.208Z,31.07
2019-04-22T09:02:19.954Z,32.49
2019-04-22T09:03:11.105Z,33.29
2019-04-22T09:04:11.737Z,31.76
2019-04-22T09:05:22.815Z,31.96
2019-04-22T09:06:19.939Z,31.87
2019-04-22T09:07:20.682Z,31.36
2019-04-22T09:08:19.119Z,32.17
2019-04-22T09:09:11.640Z,31.36
2019-04-22T09:10:17.149Z,29.68
2019-04-22T09:11:14.841Z,30.28
2019-04-22T09:12:15.819Z,29.52
2019-04-22T09:13:10.191Z,29.52
2019-04-22T09:14:15.950Z,30.12
2019-04-22T09:15:16.239Z,29.59
2019-04-22T09:16:21.882Z,30.30
2019-04-22T09:17:17.956Z,29.99
2019-04-22T09:18:19.399Z,28.48
2019-04-22T09:19:12.524Z,29.28
2019-04-22T09:20:12.776Z,29.59
2019-04-22T09:21:18.686Z,29.57
2019-04-22T09:22:16.860Z,28.35
2019-04-22T09:23:17.638Z,28.03
2019-04-22T09:25:08.134Z,28.54
2019-04-22T09:26:15.387Z,28.64
2019-04-22T09:27:22.514Z,28.42
2019-04-22T09:28:15.160Z,28.01
2019-04-22T09:29:20.932Z,28.83
2019-04-22T09:30:16.913Z,29.85
2019-04-22T09:31:11.399Z,28.72
2019-04-22T09:32:21.623Z,29.33
2019-04-22T09:33:14.196Z,28.02
2019-04-22T09:34:18.583Z,29.03
2019-04-22T09:35:10.148Z,29.83
2019-04-22T09:37:20.646Z,27.29
2019-04-22T09:38:25.760Z,27.29
2019-04-22T09:39:19.292Z,27.70
2019-04-22T09:40:18.718Z,27.51
2019-04-22T09:41:14.227Z,28.12
2019-04-22T09:42:10.812Z,28.81
2019-04-22T09:43:18.419Z,28.32
2019-04-22T09:44:08.064Z,28.45
2019-04-22T09:45:12.451Z,29.20
2019-04-22T09:46:15.117Z,30.83
2019-04-22T09:47:11.603Z,30.91
2019-04-22T09:48:18.422Z,31.20
2019-04-22T09:49:19.383Z,30.08
2019-04-22T09:50:16.471Z,30.28
2019-04-22T09:51:12.306Z,30.08
2019-04-22T09:52:28.046Z,30.77
2019-04-22T09:53:17.569Z,30.15
2019-04-22T09:54:21.751Z,30.26
2019-04-22T09:55:12.446Z,29.74
2019-04-22T09:56:17.631Z,29.53
2019-04-22T09:57:16.951Z,30.74
2019-04-22T09:58:09.523Z,30.02
2019-04-22T09:59:13.713Z,29.41
2019-04-22T10:00:28.642Z,29.50
2019-04-22T10:01:32.438Z,29.71
2019-04-22T10:03:13.650Z,29.71
2019-04-22T10:04:27.283Z,29.49
2019-04-22T10:05:11.470Z,30.18
2019-04-22T10:06:22.815Z,29.27
2019-04-22T10:07:17.569Z,29.46
2019-04-22T10:08:22.272Z,29.47
2019-04-22T10:09:42.889Z,29.99
2019-04-22T10:10:17.140Z,30.21
2019-04-22T10:11:04.653Z,31.35
2019-04-22T10:13:18.754Z,31.13
2019-04-22T10:14:12.336Z,30.08
2019-04-22T10:15:09.709Z,29.75
2019-04-22T10:16:20.667Z,29.33
2019-04-22T10:17:15.624Z,28.63
2019-04-22T10:18:20.349Z,28.53
2019-04-22T10:19:14.529Z,28.13
2019-04-22T10:20:13.325Z,29.00
2019-04-22T10:21:16.290Z,27.81
2019-04-22T10:22:25.348Z,29.24
2019-04-22T10:23:17.724Z,28.73
2019-04-22T10:24:16.639Z,28.22
2019-04-22T10:25:14.578Z,27.80
2019-04-22T10:26:19.480Z,27.69
2019-04-22T10:27:07.226Z,26.66
2019-04-22T10:28:15.158Z,27.15
2019-04-22T10:29:16.997Z,25.72
2019-04-22T10:30:17.312Z,26.28
2019-04-22T10:31:19.297Z,24.88
2019-04-22T10:32:11.360Z,24.68
2019-04-22T10:33:11.669Z,25.97
2019-04-22T10:33:59.967Z,25.36
2019-04-22T10:34:56.607Z,23.84
2019-04-22T10:35:47.687Z,23.91
2019-04-22T10:36:51.024Z,24.11
2019-04-22T10:37:48.134Z,23.18
2019-04-22T10:38:46.625Z,23.07
2019-04-22T10:39:56.123Z,23.36
2019-04-22T10:40:47.221Z,23.16
2019-04-22T10:41:46.479Z,23.65
2019-04-22T10:42:47.308Z,22.55
2019-04-22T10:43:47.442Z,22.77
2019-04-22T10:44:46.842Z,22.86
2019-04-22T10:45:46.243Z,22.66
2019-04-22T10:46:46.378Z,22.37
2019-04-22T10:47:46.139Z,22.77
2019-04-22T10:48:46.248Z,23.27
2019-04-22T10:49:46.644Z,23.11
2019-04-22T10:50:46.578Z,23.32
2019-04-22T10:51:46.560Z,24.26
2019-04-22T10:52:47.606Z,25.57
2019-04-22T10:53:47.158Z,25.36
2019-04-22T10:54:47.291Z,24.51
2019-04-22T10:55:47.739Z,23.79
2019-04-22T10:56:46.054Z,23.50
2019-04-22T10:57:46.395Z,23.93
2019-04-22T10:58:46.677Z,23.93
2019-04-22T10:59:46.898Z,23.91
2019-04-22T11:00:47.223Z,23.71
2019-04-22T11:01:46.513Z,23.60
2019-04-22T11:02:45.992Z,24.32
2019-04-22T11:03:45.973Z,23.91
2019-04-22T11:04:46.109Z,23.72
2019-04-22T11:05:46.321Z,23.28
2019-04-22T11:06:53.074Z,23.18
2019-04-22T11:07:53.762Z,22.80
2019-04-22T11:08:52.808Z,23.00
2019-04-22T11:09:54.897Z,24.02
2019-04-22T11:11:00.353Z,23.85
2019-04-22T11:11:54.223Z,23.72
2019-04-22T11:12:47.205Z,23.53
2019-04-22T11:13:47.482Z,23.61
2019-04-22T11:14:45.880Z,23.71
2019-04-22T11:15:46.806Z,23.61
2019-04-22T11:16:45.840Z,23.80
2019-04-22T11:17:47.140Z,23.72
2019-04-22T11:18:45.842Z,23.52
2019-04-22T11:19:45.867Z,23.23
2019-04-22T11:20:47.256Z,24.32
2019-04-22T11:21:57.678Z,24.24
2019-04-22T11:22:46.805Z,25.63
2019-04-22T11:23:46.999Z,24.65
2019-04-22T11:24:46.650Z,25.87
2019-04-22T11:25:46.149Z,25.86
2019-04-22T11:26:47.018Z,25.95
2019-04-22T11:27:47.098Z,26.22
2019-04-22T11:28:45.722Z,25.00
2019-04-22T11:29:45.799Z,23.90
2019-04-22T11:30:45.720Z,24.08
2019-04-22T11:31:46.470Z,24.40
2019-04-22T11:32:46.556Z,24.80
2019-04-22T11:33:45.687Z,25.42
2019-04-22T11:34:46.998Z,25.73
2019-04-22T11:35:45.974Z,25.86
2019-04-22T11:36:47.054Z,27.20
2019-04-22T11:37:46.593Z,27.02
2019-04-22T11:38:52.379Z,27.02
2019-04-22T11:39:48.138Z,27.31
2019-04-22T11:40:51.730Z,28.01
2019-04-22T11:41:46.588Z,27.92
2019-04-22T11:42:46.057Z,28.22
2019-04-22T11:43:47.232Z,28.62
2019-04-22T11:44:45.574Z,28.12
2019-04-22T11:45:46.977Z,28.30
2019-04-22T11:46:45.541Z,29.51
2019-04-22T11:47:45.621Z,27.91
2019-04-22T11:48:45.710Z,29.41
2019-04-22T11:49:45.883Z,29.12
2019-04-22T11:50:46.167Z,28.11
2019-04-22T11:51:45.777Z,29.94
2019-04-22T11:52:46.791Z,30.15
2019-04-22T11:53:46.862Z,29.75
2019-04-22T11:54:46.694Z,30.15
2019-04-22T11:55:46.726Z,30.15
2019-04-22T11:56:45.432Z,29.84
2019-04-22T11:57:45.424Z,29.93
2019-04-22T11:58:46.876Z,29.22
2019-04-22T11:59:46.860Z,30.02
2019-04-22T12:00:45.388Z,30.02
2019-04-22T12:01:46.653Z,30.34
2019-04-22T12:02:46.786Z,30.85
2019-04-22T12:03:46.292Z,31.07
2019-04-22T12:04:45.598Z,30.35
2019-04-22T12:05:45.960Z,30.45
2019-04-22T12:06:46.176Z,30.82
2019-04-22T12:07:46.949Z,29.82
2019-04-22T12:08:45.888Z,29.43
2019-04-22T12:09:45.846Z,29.01
2019-04-22T12:10:51.687Z,28.69
2019-04-22T12:11:46.893Z,28.58
2019-04-22T12:12:47.885Z,28.28
2019-04-22T12:13:46.360Z,28.98
2019-04-22T12:14:45.873Z,29.10
2019-04-22T12:15:45.230Z,29.28
2019-04-22T12:16:45.522Z,29.51
2019-04-22T12:17:46.215Z,29.08
2019-04-22T12:18:45.193Z,27.57
2019-04-22T12:19:46.361Z,28.18
2019-04-22T12:20:45.454Z,27.77
2019-04-22T12:21:45.164Z,28.89
2019-04-22T12:22:45.153Z,27.89
2019-04-22T12:23:45.279Z,28.71
2019-04-22T12:24:46.076Z,29.31
2019-04-22T12:25:53.573Z,29.21
2019-04-22T12:26:46.433Z,28.87
2019-04-22T12:27:45.418Z,27.95
2019-04-22T12:28:45.100Z,27.84
2019-04-22T12:29:45.082Z,28.36
2019-04-22T12:30:45.747Z,28.27
2019-04-22T12:31:45.259Z,29.48
2019-04-22T12:32:45.576Z,28.17
2019-04-22T12:33:45.400Z,29.10
2019-04-22T12:34:45.025Z,29.41
2019-04-22T12:35:46.320Z,30.78
2019-04-22T12:36:45.005Z,31.88
2019-04-22T12:37:51.637Z,30.27
2019-04-22T12:38:47.387Z,30.67
2019-04-22T12:39:45.377Z,30.85
2019-04-22T12:40:51.210Z,29.62
2019-04-22T12:41:46.362Z,29.61
2019-04-22T12:42:45.084Z,29.52
2019-04-22T12:43:45.157Z,30.84
2019-04-22T12:44:45.799Z,31.27
2019-04-22T12:45:44.913Z,30.93
2019-04-22T12:46:46.189Z,29.30
2019-04-22T12:47:46.190Z,29.17
2019-04-22T12:48:45.197Z,29.30
2019-04-22T12:49:46.944Z,30.34
2019-04-22T12:50:48.035Z,30.21
2019-04-22T12:51:45.400Z,30.62
2019-04-22T12:52:51.517Z,30.81
2019-04-22T12:53:46.257Z,31.07
2019-04-22T12:54:44.814Z,31.79
2019-04-22T12:55:45.999Z,31.38
2019-04-22T12:56:45.959Z,32.29
2019-04-22T12:57:46.256Z,31.68
2019-04-22T12:58:45.776Z,31.15
2019-04-22T12:59:45.724Z,30.54
2019-04-22T13:00:44.971Z,30.62
2019-04-22T13:01:44.792Z,29.90
2019-04-22T13:02:45.071Z,29.10
2019-04-22T13:03:44.797Z,29.49
2019-04-22T13:04:45.917Z,29.39
2019-04-22T13:05:45.131Z,30.73
2019-04-22T13:06:45.960Z,30.01
2019-04-22T13:07:44.682Z,29.90
2019-04-22T13:08:45.754Z,30.01
2019-04-22T13:09:45.392Z,29.99
2019-04-22T13:10:53.312Z,30.28
2019-04-22T13:11:45.953Z,29.78
2019-04-22T13:12:44.852Z,29.15
2019-04-22T13:13:45.119Z,29.44
2019-04-22T13:14:45.487Z,28.77
2019-04-22T13:15:44.665Z,29.38
2019-04-22T13:16:44.947Z,30.71
2019-04-22T13:17:46.110Z,30.81
2019-04-22T13:18:53.112Z,30.51
2019-04-22T13:19:45.552Z,30.79
2019-04-22T13:20:44.542Z,30.28
2019-04-22T13:21:44.865Z,29.17
2019-04-22T13:22:45.044Z,28.87
2019-04-22T13:23:44.637Z,29.36
2019-04-22T13:24:45.790Z,29.25
2019-04-22T13:25:44.929Z,29.97
2019-04-22T13:26:45.242Z,29.14
2019-04-22T13:27:44.868Z,28.92
2019-04-22T13:28:45.086Z,28.94
2019-04-22T13:29:46.606Z,28.54
2019-04-22T13:30:44.466Z,27.74
2019-04-22T13:31:44.834Z,29.15
2019-04-22T13:32:44.834Z,28.44
2019-04-22T13:33:44.398Z,27.83
2019-04-22T13:34:48.128Z,28.12
2019-04-22T13:35:45.766Z,26.90
2019-04-22T13:36:46.601Z,27.02
2019-04-22T13:37:44.358Z,26.54
2019-04-22T13:38:44.933Z,27.26
2019-04-22T13:39:45.074Z,27.06
2019-04-22T13:40:57.901Z,27.98
2019-04-22T13:41:50.437Z,28.19
2019-04-22T13:42:46.540Z,28.47
2019-04-22T13:43:44.953Z,27.87
2019-04-22T13:44:44.307Z,28.37
2019-04-22T13:45:45.455Z,28.36
2019-04-22T13:47:02.067Z,27.64
2019-04-22T13:48:03.016Z,28.37
2019-04-22T13:49:13.164Z,28.98
2019-04-22T13:50:17.192Z,28.36
2019-04-22T13:51:13.208Z,27.64
2019-04-22T13:54:42.424Z,29.05
2019-04-22T13:56:07.595Z,27.92
2019-04-22T13:57:03.930Z,27.20
2019-04-22T13:57:58.285Z,26.81
2019-04-22T13:58:58.699Z,27.19
2019-04-22T13:59:50.694Z,26.89
2019-04-22T14:00:45.114Z,27.12
2019-04-22T14:01:44.105Z,28.11
2019-04-22T14:02:44.630Z,27.95
2019-04-22T14:03:44.740Z,28.04
2019-04-22T14:04:44.092Z,27.23
2019-04-22T14:05:44.836Z,27.57
2019-04-22T14:06:44.878Z,28.38
2019-04-22T14:07:44.040Z,28.27
2019-04-22T14:08:45.212Z,28.37
2019-04-22T14:09:44.463Z,26.86
2019-04-22T14:10:44.735Z,27.57
2019-04-22T14:11:50.524Z,27.66
2019-04-22T14:12:44.981Z,28.27
2019-04-22T14:13:43.974Z,29.58
2019-04-22T14:14:45.741Z,29.41
2019-04-22T14:15:44.012Z,29.91
2019-04-22T14:16:44.890Z,29.91
2019-04-22T14:17:45.392Z,30.21